sensor_id;sensor_type;location;lat;lon;timestamp;pressure;altitude;pressure_sealevel;temperature;humidity
22938;BME280;11634;42.734;23.298;2023-02-14T00:02:04;96806.31;;;1.84;100.00
22938;BME280;11634;42.734;23.298;2023-02-14T00:04:30;96787.84;;;1.73;100.00
22938;BME280;11634;42.734;23.298;2023-02-14T00:06:55;96803.81;;;1.83;100.00
22938;BME280;11634;42.734;23.298;2023-02-14T00:09:22;96786.25;;;1.69;100.00
22938;BME280;11634;42.734;23.298;2023-02-14T00:11:47;96803.03;;;1.79;100.00
22938;BME280;11634;42.734;23.298;2023-02-14T00:14:13;96774.09;;;1.74;100.00
22938;BME280;11634;42.734;23.298;2023-02-14T00:16:58;96791.59;;;1.89;100.00
22938;BME280;11634;42.734;23.298;2023-02-14T00:19:24;96806.53;;;2.04;100.00
22938;BME280;11634;42.734;23.298;2023-02-14T00:21:49;96783.91;;;1.89;100.00
22938;BME280;11634;42.734;23.298;2023-02-14T00:24:21;96803.78;;;2.12;100.00
22938;BME280;11634;42.734;23.298;2023-02-14T00:26:47;96787.66;;;2.07;100.00
22938;BME280;11634;42.734;23.298;2023-02-14T00:29:16;96780.88;;;2.04;100.00
22938;BME280;11634;42.734;23.298;2023-02-14T00:31:43;96799.38;;;2.15;100.00
22938;BME280;11634;42.734;23.298;2023-02-14T00:34:09;96780.34;;;2.22;100.00
22938;BME280;11634;42.734;23.298;2023-02-14T00:36:35;96794.56;;;2.32;100.00
22938;BME280;11634;42.734;23.298;2023-02-14T00:39:06;96778.03;;;2.40;100.00
22938;BME280;11634;42.734;23.298;2023-02-14T00:41:32;96787.81;;;2.55;100.00
22938;BME280;11634;42.734;23.298;2023-02-14T00:43:58;96793.59;;;2.62;100.00
22938;BME280;11634;42.734;23.298;2023-02-14T00:46:24;96789.19;;;2.65;100.00
22938;BME280;11634;42.734;23.298;2023-02-14T00:48:50;96775.50;;;2.65;100.00
22938;BME280;11634;42.734;23.298;2023-02-14T00:51:17;96779.50;;;2.73;100.00
22938;BME280;11634;42.734;23.298;2023-02-14T00:53:44;96775.94;;;2.77;100.00
22938;BME280;11634;42.734;23.298;2023-02-14T00:56:10;96766.41;;;2.80;100.00
22938;BME280;11634;42.734;23.298;2023-02-14T00:58:36;96748.81;;;2.69;100.00
22938;BME280;11634;42.734;23.298;2023-02-14T01:01:02;96761.16;;;2.83;100.00
22938;BME280;11634;42.734;23.298;2023-02-14T01:03:28;96728.50;;;2.61;100.00
22938;BME280;11634;42.734;23.298;2023-02-14T01:05:55;96752.81;;;2.77;100.00
22938;BME280;11634;42.734;23.298;2023-02-14T01:08:22;96743.47;;;2.74;100.00
22938;BME280;11634;42.734;23.298;2023-02-14T01:10:48;96740.06;;;2.74;100.00
22938;BME280;11634;42.734;23.298;2023-02-14T01:13:13;96710.78;;;2.54;100.00
22938;BME280;11634;42.734;23.298;2023-02-14T01:15:42;96753.38;;;2.85;100.00
22938;BME280;11634;42.734;23.298;2023-02-14T01:18:08;96708.91;;;2.59;100.00
22938;BME280;11634;42.734;23.298;2023-02-14T01:20:34;96728.84;;;2.76;100.00
22938;BME280;11634;42.734;23.298;2023-02-14T01:23:00;96740.06;;;2.74;100.00
22938;BME280;11634;42.734;23.298;2023-02-14T01:25:26;96747.47;;;2.83;100.00
22938;BME280;11634;42.734;23.298;2023-02-14T01:27:51;96745.03;;;2.78;100.00
22938;BME280;11634;42.734;23.298;2023-02-14T01:30:17;96734.16;;;2.70;100.00
22938;BME280;11634;42.734;23.298;2023-02-14T01:32:43;96731.78;;;2.66;100.00
22938;BME280;11634;42.734;23.298;2023-02-14T01:35:11;96718.22;;;2.61;100.00
22938;BME280;11634;42.734;23.298;2023-02-14T01:37:36;96724.81;;;2.70;100.00
22938;BME280;11634;42.734;23.298;2023-02-14T01:40:05;96741.41;;;2.84;100.00
22938;BME280;11634;42.734;23.298;2023-02-14T01:42:36;96718.56;;;2.76;100.00
22938;BME280;11634;42.734;23.298;2023-02-14T01:45:15;96720.25;;;2.77;100.00
22938;BME280;11634;42.734;23.298;2023-02-14T01:47:43;96718.63;;;2.75;100.00
22938;BME280;11634;42.734;23.298;2023-02-14T01:50:16;96708.41;;;2.73;100.00
22938;BME280;11634;42.734;23.298;2023-02-14T01:52:51;96709.88;;;2.80;100.00
22938;BME280;11634;42.734;23.298;2023-02-14T01:55:22;96705.50;;;2.82;100.00
22938;BME280;11634;42.734;23.298;2023-02-14T01:57:53;96713.78;;;2.90;100.00
22938;BME280;11634;42.734;23.298;2023-02-14T02:00:21;96707.00;;;2.88;100.00
22938;BME280;11634;42.734;23.298;2023-02-14T02:03:08;96706.81;;;2.94;100.00
22938;BME280;11634;42.734;23.298;2023-02-14T02:05:39;96715.59;;;2.88;100.00
22938;BME280;11634;42.734;23.298;2023-02-14T02:08:05;96723.28;;;2.88;100.00
22938;BME280;11634;42.734;23.298;2023-02-14T02:10:31;96689.66;;;2.70;100.00
22938;BME280;11634;42.734;23.298;2023-02-14T02:13:00;96710.53;;;2.85;100.00
22938;BME280;11634;42.734;23.298;2023-02-14T02:15:30;96716.00;;;2.76;100.00
22938;BME280;11634;42.734;23.298;2023-02-14T02:18:09;96714.31;;;2.75;100.00
22938;BME280;11634;42.734;23.298;2023-02-14T02:30:01;96685.84;;;2.81;100.00
22938;BME280;11634;42.734;23.298;2023-02-14T02:41:00;96674.94;;;2.75;100.00
22938;BME280;11634;42.734;23.298;2023-02-14T02:46:15;96679.28;;;2.73;100.00
22938;BME280;11634;42.734;23.298;2023-02-14T02:52:12;96618.22;;;2.32;100.00
22938;BME280;11634;42.734;23.298;2023-02-14T02:55:18;96648.44;;;2.49;100.00
22938;BME280;11634;42.734;23.298;2023-02-14T02:57:46;96655.97;;;2.55;100.00
22938;BME280;11634;42.734;23.298;2023-02-14T03:00:14;96659.41;;;2.54;100.00
22938;BME280;11634;42.734;23.298;2023-02-14T03:02:44;96668.88;;;2.53;100.00
22938;BME280;11634;42.734;23.298;2023-02-14T03:05:32;96671.25;;;2.58;100.00
22938;BME280;11634;42.734;23.298;2023-02-14T03:07:59;96661.22;;;2.52;100.00
22938;BME280;11634;42.734;23.298;2023-02-14T03:10:27;96679.66;;;2.63;100.00
22938;BME280;11634;42.734;23.298;2023-02-14T03:15:57;96657.66;;;2.54;100.00
22938;BME280;11634;42.734;23.298;2023-02-14T03:19:12;96676.28;;;2.61;100.00
22938;BME280;11634;42.734;23.298;2023-02-14T03:24:56;96664.38;;;2.58;100.00
22938;BME280;11634;42.734;23.298;2023-02-14T03:27:24;96645.81;;;2.52;100.00
22938;BME280;11634;42.734;23.298;2023-02-14T03:33:07;96632.25;;;2.47;100.00
22938;BME280;11634;42.734;23.298;2023-02-14T03:38:18;96664.66;;;2.51;100.00
22938;BME280;11634;42.734;23.298;2023-02-14T03:41:01;96664.78;;;2.48;100.00
22938;BME280;11634;42.734;23.298;2023-02-14T03:43:30;96654.56;;;2.46;100.00
22938;BME280;11634;42.734;23.298;2023-02-14T03:48:38;96635.47;;;2.29;100.00
22938;BME280;11634;42.734;23.298;2023-02-14T03:51:07;96642.78;;;2.39;100.00
22938;BME280;11634;42.734;23.298;2023-02-14T03:53:37;96637.59;;;2.41;100.00
22938;BME280;11634;42.734;23.298;2023-02-14T03:56:17;96629.13;;;2.39;100.00
22938;BME280;11634;42.734;23.298;2023-02-14T03:58:53;96631.63;;;2.40;100.00
22938;BME280;11634;42.734;23.298;2023-02-14T04:04:11;96564.50;;;2.02;100.00
22938;BME280;11634;42.734;23.298;2023-02-14T04:06:39;96629.88;;;2.41;100.00
22938;BME280;11634;42.734;23.298;2023-02-14T04:09:04;96629.94;;;2.39;100.00
22938;BME280;11634;42.734;23.298;2023-02-14T04:11:32;96634.38;;;2.36;100.00
22938;BME280;11634;42.734;23.298;2023-02-14T04:14:00;96634.56;;;2.30;100.00
22938;BME280;11634;42.734;23.298;2023-02-14T04:16:25;96641.22;;;2.35;100.00
22938;BME280;11634;42.734;23.298;2023-02-14T04:18:51;96624.97;;;2.35;100.00
22938;BME280;11634;42.734;23.298;2023-02-14T04:21:35;96618.31;;;2.29;100.00
22938;BME280;11634;42.734;23.298;2023-02-14T04:24:01;96631.09;;;2.31;100.00
22938;BME280;11634;42.734;23.298;2023-02-14T04:26:26;96605.75;;;2.22;100.00
22938;BME280;11634;42.734;23.298;2023-02-14T04:28:52;96618.06;;;2.37;100.00
22938;BME280;11634;42.734;23.298;2023-02-14T04:31:17;96618.91;;;2.37;100.00
22938;BME280;11634;42.734;23.298;2023-02-14T04:33:43;96597.72;;;2.31;100.00
22938;BME280;11634;42.734;23.298;2023-02-14T04:36:10;96620.53;;;2.40;100.00
22938;BME280;11634;42.734;23.298;2023-02-14T04:38:36;96597.41;;;2.16;100.00
22938;BME280;11634;42.734;23.298;2023-02-14T04:41:01;96609.22;;;2.45;100.00
22938;BME280;11634;42.734;23.298;2023-02-14T04:43:27;96614.22;;;2.48;100.00
22938;BME280;11634;42.734;23.298;2023-02-14T04:45:54;96614.22;;;2.48;100.00
22938;BME280;11634;42.734;23.298;2023-02-14T04:48:20;96595.72;;;2.39;100.00
22938;BME280;11634;42.734;23.298;2023-02-14T04:50:53;96597.41;;;2.40;100.00
22938;BME280;11634;42.734;23.298;2023-02-14T04:53:19;96539.63;;;2.04;100.00
22938;BME280;11634;42.734;23.298;2023-02-14T04:55:48;96584.81;;;2.32;100.00
22938;BME280;11634;42.734;23.298;2023-02-14T04:58:14;96595.63;;;2.42;100.00
22938;BME280;11634;42.734;23.298;2023-02-14T05:00:41;96586.44;;;2.35;100.00
22938;BME280;11634;42.734;23.298;2023-02-14T05:03:06;96599.03;;;2.42;100.00
22938;BME280;11634;42.734;23.298;2023-02-14T05:05:34;96600.69;;;2.43;100.00
22938;BME280;11634;42.734;23.298;2023-02-14T05:07:59;96590.66;;;2.37;100.00
22938;BME280;11634;42.734;23.298;2023-02-14T05:10:25;96601.34;;;2.50;100.00
22938;BME280;11634;42.734;23.298;2023-02-14T05:12:51;96599.50;;;2.53;100.00
22938;BME280;11634;42.734;23.298;2023-02-14T05:15:16;96591.22;;;2.45;100.00
22938;BME280;11634;42.734;23.298;2023-02-14T05:17:45;96597.13;;;2.47;100.00
22938;BME280;11634;42.734;23.298;2023-02-14T05:20:10;96601.22;;;2.53;100.00
22938;BME280;11634;42.734;23.298;2023-02-14T05:22:36;96593.38;;;2.57;100.00
22938;BME280;11634;42.734;23.298;2023-02-14T05:25:01;96594.44;;;2.52;100.00
22938;BME280;11634;42.734;23.298;2023-02-14T05:27:27;96603.47;;;2.62;100.00
22938;BME280;11634;42.734;23.298;2023-02-14T05:29:53;96594.31;;;2.55;100.00
22938;BME280;11634;42.734;23.298;2023-02-14T05:32:19;96563.16;;;2.39;100.00
22938;BME280;11634;42.734;23.298;2023-02-14T05:34:45;96580.78;;;2.50;100.00
22938;BME280;11634;42.734;23.298;2023-02-14T05:37:10;96589.31;;;2.50;100.00
22938;BME280;11634;42.734;23.298;2023-02-14T05:39:36;96590.81;;;2.56;100.00
22938;BME280;11634;42.734;23.298;2023-02-14T05:42:01;96591.84;;;2.52;100.00
22938;BME280;11634;42.734;23.298;2023-02-14T05:44:27;96582.59;;;2.48;100.00
22938;BME280;11634;42.734;23.298;2023-02-14T05:46:53;96562.22;;;2.42;100.00
22938;BME280;11634;42.734;23.298;2023-02-14T05:49:19;96585.09;;;2.49;100.00
22938;BME280;11634;42.734;23.298;2023-02-14T05:51:44;96593.38;;;2.57;100.00
22938;BME280;11634;42.734;23.298;2023-02-14T05:54:10;96591.69;;;2.56;100.00
22938;BME280;11634;42.734;23.298;2023-02-14T05:56:36;96566.38;;;2.46;100.00
22938;BME280;11634;42.734;23.298;2023-02-14T05:59:02;96589.06;;;2.58;100.00
22938;BME280;11634;42.734;23.298;2023-02-14T06:01:27;96569.50;;;2.54;100.00
22938;BME280;11634;42.734;23.298;2023-02-14T06:03:53;96569.13;;;2.64;100.00
22938;BME280;11634;42.734;23.298;2023-02-14T06:06:19;96601.31;;;2.74;100.00
22938;BME280;11634;42.734;23.298;2023-02-14T06:08:44;96573.09;;;2.72;100.00
22938;BME280;11634;42.734;23.298;2023-02-14T06:11:10;96573.59;;;2.82;100.00
22938;BME280;11634;42.734;23.298;2023-02-14T06:13:35;96598.13;;;2.90;100.00
22938;BME280;11634;42.734;23.298;2023-02-14T06:16:02;96604.72;;;2.97;100.00
22938;BME280;11634;42.734;23.298;2023-02-14T06:18:28;96598.22;;;3.10;100.00
22938;BME280;11634;42.734;23.298;2023-02-14T06:20:54;96605.94;;;3.10;100.00
22938;BME280;11634;42.734;23.298;2023-02-14T06:23:20;96600.94;;;3.07;100.00
22938;BME280;11634;42.734;23.298;2023-02-14T06:25:45;96604.13;;;3.12;100.00
22938;BME280;11634;42.734;23.298;2023-02-14T06:28:11;96607.22;;;3.22;100.00
22938;BME280;11634;42.734;23.298;2023-02-14T06:30:36;96590.34;;;3.15;100.00
22938;BME280;11634;42.734;23.298;2023-02-14T06:33:02;96600.88;;;3.30;100.00
22938;BME280;11634;42.734;23.298;2023-02-14T06:35:27;96598.28;;;3.30;100.00
22938;BME280;11634;42.734;23.298;2023-02-14T06:37:53;96549.44;;;3.09;100.00
22938;BME280;11634;42.734;23.298;2023-02-14T06:40:19;96594.84;;;3.31;100.00
22938;BME280;11634;42.734;23.298;2023-02-14T06:42:44;96606.41;;;3.42;100.00
22938;BME280;11634;42.734;23.298;2023-02-14T06:45:10;96593.00;;;3.34;100.00
22938;BME280;11634;42.734;23.298;2023-02-14T06:47:36;96608.25;;;3.39;100.00
22938;BME280;11634;42.734;23.298;2023-02-14T06:50:04;96590.06;;;3.43;100.00
22938;BME280;11634;42.734;23.298;2023-02-14T06:52:32;96579.75;;;3.43;100.00
22938;BME280;11634;42.734;23.298;2023-02-14T06:54:57;96583.56;;;3.56;100.00
22938;BME280;11634;42.734;23.298;2023-02-14T06:57:23;96585.03;;;3.62;100.00
22938;BME280;11634;42.734;23.298;2023-02-14T06:59:48;96583.97;;;3.67;100.00
22938;BME280;11634;42.734;23.298;2023-02-14T07:02:14;96585.38;;;3.74;100.00
22938;BME280;11634;42.734;23.298;2023-02-14T07:04:39;96587.63;;;3.81;100.00
22938;BME280;11634;42.734;23.298;2023-02-14T07:07:05;96596.03;;;3.86;100.00
22938;BME280;11634;42.734;23.298;2023-02-14T07:09:31;96570.00;;;3.94;100.00
22938;BME280;11634;42.734;23.298;2023-02-14T07:11:56;96573.25;;;3.97;100.00
22938;BME280;11634;42.734;23.298;2023-02-14T07:14:22;96565.78;;;4.11;100.00
22938;BME280;11634;42.734;23.298;2023-02-14T07:16:47;96521.50;;;3.83;100.00
22938;BME280;11634;42.734;23.298;2023-02-14T07:19:14;96580.94;;;4.19;100.00
22938;BME280;11634;42.734;23.298;2023-02-14T07:21:40;96583.97;;;4.28;100.00
22938;BME280;11634;42.734;23.298;2023-02-14T07:24:06;96369.78;;;3.01;100.00
22938;BME280;11634;42.734;23.298;2023-02-14T07:26:32;96590.28;;;4.21;100.00
22938;BME280;11634;42.734;23.298;2023-02-14T07:28:57;96588.47;;;4.43;100.00
22938;BME280;11634;42.734;23.298;2023-02-14T07:31:23;96562.72;;;4.23;100.00
22938;BME280;11634;42.734;23.298;2023-02-14T07:33:49;96575.06;;;4.15;100.00
22938;BME280;11634;42.734;23.298;2023-02-14T07:36:15;96577.13;;;4.27;100.00
22938;BME280;11634;42.734;23.298;2023-02-14T07:38:41;96575.22;;;4.32;100.00
22938;BME280;11634;42.734;23.298;2023-02-14T07:41:06;96554.47;;;4.15;100.00
22938;BME280;11634;42.734;23.298;2023-02-14T07:43:32;96552.22;;;4.08;100.00
22938;BME280;11634;42.734;23.298;2023-02-14T07:46:01;96562.78;;;4.22;100.00
22938;BME280;11634;42.734;23.298;2023-02-14T07:48:27;96576.31;;;4.27;100.00
22938;BME280;11634;42.734;23.298;2023-02-14T07:50:52;96583.06;;;4.09;100.00
22938;BME280;11634;42.734;23.298;2023-02-14T07:53:22;96550.47;;;4.08;100.00
22938;BME280;11634;42.734;23.298;2023-02-14T07:55:50;96584.75;;;4.10;100.00
22938;BME280;11634;42.734;23.298;2023-02-14T07:58:19;96575.91;;;4.16;100.00
22938;BME280;11634;42.734;23.298;2023-02-14T08:00:45;96606.91;;;4.14;100.00
22938;BME280;11634;42.734;23.298;2023-02-14T08:03:14;96585.84;;;4.05;100.00
22938;BME280;11634;42.734;23.298;2023-02-14T08:05:40;96591.94;;;4.02;100.00
22938;BME280;11634;42.734;23.298;2023-02-14T08:08:05;96591.88;;;4.04;100.00
22938;BME280;11634;42.734;23.298;2023-02-14T08:10:31;96594.00;;;4.14;100.00
22938;BME280;11634;42.734;23.298;2023-02-14T08:12:56;96601.91;;;4.10;100.00
22938;BME280;11634;42.734;23.298;2023-02-14T08:15:34;96599.47;;;4.07;100.00
22938;BME280;11634;42.734;23.298;2023-02-14T08:18:20;96579.25;;;3.98;100.00
22938;BME280;11634;42.734;23.298;2023-02-14T08:20:47;96591.53;;;4.11;100.00
22938;BME280;11634;42.734;23.298;2023-02-14T08:23:17;96615.56;;;4.32;100.00
22938;BME280;11634;42.734;23.298;2023-02-14T08:25:42;96602.69;;;4.32;100.00
22938;BME280;11634;42.734;23.298;2023-02-14T08:28:08;96610.78;;;4.44;100.00
22938;BME280;11634;42.734;23.298;2023-02-14T08:30:37;96615.84;;;4.45;100.00
22938;BME280;11634;42.734;23.298;2023-02-14T08:33:03;96608.81;;;4.49;100.00
22938;BME280;11634;42.734;23.298;2023-02-14T08:35:29;96610.69;;;4.45;100.00
22938;BME280;11634;42.734;23.298;2023-02-14T08:37:55;96603.16;;;4.61;100.00
22938;BME280;11634;42.734;23.298;2023-02-14T08:40:20;96610.88;;;4.41;100.00
22938;BME280;11634;42.734;23.298;2023-02-14T08:42:46;96613.97;;;4.49;100.00
22938;BME280;11634;42.734;23.298;2023-02-14T08:45:11;96622.03;;;4.41;100.00
22938;BME280;11634;42.734;23.298;2023-02-14T08:47:37;96610.88;;;4.41;100.00
22938;BME280;11634;42.734;23.298;2023-02-14T08:50:06;96600.72;;;4.38;100.00
22938;BME280;11634;42.734;23.298;2023-02-14T08:52:32;96595.16;;;4.27;100.00
22938;BME280;11634;42.734;23.298;2023-02-14T08:54:57;96612.25;;;4.30;100.00
22938;BME280;11634;42.734;23.298;2023-02-14T08:57:23;96592.47;;;4.10;100.00
22938;BME280;11634;42.734;23.298;2023-02-14T08:59:50;96586.66;;;4.05;100.00
22938;BME280;11634;42.734;23.298;2023-02-14T09:02:17;96625.31;;;4.25;100.00
22938;BME280;11634;42.734;23.298;2023-02-14T09:04:42;96588.03;;;4.33;100.00
22938;BME280;11634;42.734;23.298;2023-02-14T09:07:08;96606.81;;;4.55;100.00
22938;BME280;11634;42.734;23.298;2023-02-14T09:09:33;96578.22;;;4.22;100.00
22938;BME280;11634;42.734;23.298;2023-02-14T09:12:05;96609.19;;;4.60;100.00
22938;BME280;11634;42.734;23.298;2023-02-14T09:14:36;96579.72;;;4.47;100.00
22938;BME280;11634;42.734;23.298;2023-02-14T09:17:03;96590.25;;;4.41;100.00
22938;BME280;11634;42.734;23.298;2023-02-14T09:19:34;96580.16;;;4.56;100.00
22938;BME280;11634;42.734;23.298;2023-02-14T09:22:00;96600.56;;;4.61;100.00
22938;BME280;11634;42.734;23.298;2023-02-14T09:24:28;96580.38;;;4.32;100.00
22938;BME280;11634;42.734;23.298;2023-02-14T09:26:54;96604.81;;;4.42;100.00
22938;BME280;11634;42.734;23.298;2023-02-14T09:29:23;96571.84;;;4.30;100.00
22938;BME280;11634;42.734;23.298;2023-02-14T09:31:51;96588.91;;;4.32;100.00
22938;BME280;11634;42.734;23.298;2023-02-14T09:34:17;96596.31;;;4.20;100.00
22938;BME280;11634;42.734;23.298;2023-02-14T09:37:01;96598.31;;;4.14;100.00
22938;BME280;11634;42.734;23.298;2023-02-14T09:39:45;96592.41;;;4.12;100.00
22938;BME280;11634;42.734;23.298;2023-02-14T09:45:24;96589.38;;;4.02;100.00
22938;BME280;11634;42.734;23.298;2023-02-14T09:47:58;96592.34;;;4.13;100.00
22938;BME280;11634;42.734;23.298;2023-02-14T09:52:56;96593.66;;;4.02;100.00
22938;BME280;11634;42.734;23.298;2023-02-14T09:55:29;96591.53;;;4.11;100.00
22938;BME280;11634;42.734;23.298;2023-02-14T09:58:07;96569.78;;;3.98;100.00
22938;BME280;11634;42.734;23.298;2023-02-14T10:03:39;96592.59;;;4.07;100.00
22938;BME280;11634;42.734;23.298;2023-02-14T10:11:34;96583.25;;;4.05;100.00
22938;BME280;11634;42.734;23.298;2023-02-14T10:14:09;96552.41;;;3.83;100.00
22938;BME280;11634;42.734;23.298;2023-02-14T10:16:37;96567.28;;;3.97;100.00
22938;BME280;11634;42.734;23.298;2023-02-14T10:19:26;96575.91;;;4.16;100.00
22938;BME280;11634;42.734;23.298;2023-02-14T10:21:53;96579.13;;;4.01;100.00
22938;BME280;11634;42.734;23.298;2023-02-14T10:24:35;96562.19;;;4.15;100.00
22938;BME280;11634;42.734;23.298;2023-02-14T10:29:56;96544.44;;;4.29;100.00
22938;BME280;11634;42.734;23.298;2023-02-14T10:32:39;96561.34;;;4.15;100.00
22938;BME280;11634;42.734;23.298;2023-02-14T10:43:33;96566.06;;;4.25;100.00
22938;BME280;11634;42.734;23.298;2023-02-14T10:46:30;96537.00;;;4.22;100.00
22938;BME280;11634;42.734;23.298;2023-02-14T10:51:49;96568.91;;;3.99;100.00
22938;BME280;11634;42.734;23.298;2023-02-14T10:54:21;96525.44;;;3.72;100.00
22938;BME280;11634;42.734;23.298;2023-02-14T11:01:50;96507.97;;;3.78;100.00
22938;BME280;11634;42.734;23.298;2023-02-14T11:04:20;96540.56;;;3.99;100.00
22938;BME280;11634;42.734;23.298;2023-02-14T11:06:46;96547.06;;;4.08;100.00
22938;BME280;11634;42.734;23.298;2023-02-14T11:09:16;96537.22;;;3.97;100.00
22938;BME280;11634;42.734;23.298;2023-02-14T11:11:47;96549.06;;;4.01;100.00
22938;BME280;11634;42.734;23.298;2023-02-14T11:14:22;96545.16;;;4.13;100.00
22938;BME280;11634;42.734;23.298;2023-02-14T11:16:48;96549.66;;;4.08;100.00
22938;BME280;11634;42.734;23.298;2023-02-14T11:19:34;96537.78;;;4.04;100.00
22938;BME280;11634;42.734;23.298;2023-02-14T11:22:01;96539.94;;;4.14;100.00
22938;BME280;11634;42.734;23.298;2023-02-14T11:24:39;96524.59;;;3.91;100.00
22938;BME280;11634;42.734;23.298;2023-02-14T11:29:43;96536.50;;;4.14;100.00
22938;BME280;11634;42.734;23.298;2023-02-14T11:37:24;96516.63;;;4.17;100.00
22938;BME280;11634;42.734;23.298;2023-02-14T11:39:52;96527.66;;;4.39;100.00
22938;BME280;11634;42.734;23.298;2023-02-14T11:42:41;96526.34;;;4.49;100.00
22938;BME280;11634;42.734;23.298;2023-02-14T11:50:35;96522.00;;;4.69;100.00
22938;BME280;11634;42.734;23.298;2023-02-14T11:53:01;96519.22;;;4.74;100.00
22938;BME280;11634;42.734;23.298;2023-02-14T11:55:30;96488.97;;;4.77;100.00
22938;BME280;11634;42.734;23.298;2023-02-14T11:57:59;96497.25;;;5.02;100.00
22938;BME280;11634;42.734;23.298;2023-02-14T12:00:26;96503.97;;;4.88;100.00
22938;BME280;11634;42.734;23.298;2023-02-14T12:02:54;96494.00;;;4.62;100.00
22938;BME280;11634;42.734;23.298;2023-02-14T12:05:41;96505.91;;;4.64;100.00
22938;BME280;11634;42.734;23.298;2023-02-14T12:08:09;96476.16;;;4.57;100.00
22938;BME280;11634;42.734;23.298;2023-02-14T12:10:37;96494.19;;;4.76;100.00
22938;BME280;11634;42.734;23.298;2023-02-14T12:13:22;96492.13;;;4.84;100.00
22938;BME280;11634;42.734;23.298;2023-02-14T12:15:52;96493.97;;;4.80;100.00
22938;BME280;11634;42.734;23.298;2023-02-14T12:18:42;96493.75;;;5.03;100.00
22938;BME280;11634;42.734;23.298;2023-02-14T12:21:38;96470.09;;;4.77;100.00
22938;BME280;11634;42.734;23.298;2023-02-14T12:24:22;96496.44;;;4.83;100.00
22938;BME280;11634;42.734;23.298;2023-02-14T12:27:04;96489.81;;;4.78;100.00
22938;BME280;11634;42.734;23.298;2023-02-14T12:29:44;96476.69;;;5.00;100.00
22938;BME280;11634;42.734;23.298;2023-02-14T12:32:19;96458.53;;;4.85;100.00
22938;BME280;11634;42.734;23.298;2023-02-14T12:34:46;96468.13;;;5.00;100.00
22938;BME280;11634;42.734;23.298;2023-02-14T12:54:00;96475.84;;;5.00;100.00
22938;BME280;11634;42.734;23.298;2023-02-14T13:02:01;96465.53;;;5.00;100.00
22938;BME280;11634;42.734;23.298;2023-02-14T13:23:11;96453.03;;;4.74;100.00
22938;BME280;11634;42.734;23.298;2023-02-14T13:25:40;96455.44;;;4.77;100.00
22938;BME280;11634;42.734;23.298;2023-02-14T13:28:12;96455.19;;;4.83;100.00
22938;BME280;11634;42.734;23.298;2023-02-14T13:30:38;96439.00;;;4.80;100.00
22938;BME280;11634;42.734;23.298;2023-02-14T13:33:22;96450.78;;;4.85;100.00
22938;BME280;11634;42.734;23.298;2023-02-14T13:35:49;96424.66;;;4.74;100.00
22938;BME280;11634;42.734;23.298;2023-02-14T13:38:16;96446.25;;;4.90;100.00
22938;BME280;11634;42.734;23.298;2023-02-14T13:40:44;96447.09;;;4.90;100.00
22938;BME280;11634;42.734;23.298;2023-02-14T13:43:11;96450.72;;;4.87;100.00
22938;BME280;11634;42.734;23.298;2023-02-14T13:45:49;96443.16;;;5.00;100.00
22938;BME280;11634;42.734;23.298;2023-02-14T13:48:21;96446.94;;;4.93;100.00
22938;BME280;11634;42.734;23.298;2023-02-14T13:53:41;96431.59;;;4.90;100.00
22938;BME280;11634;42.734;23.298;2023-02-14T13:58:52;96443.31;;;4.97;100.00
22938;BME280;11634;42.734;23.298;2023-02-14T14:17:29;96433.47;;;4.87;100.00
22938;BME280;11634;42.734;23.298;2023-02-14T14:19:55;96445.28;;;4.92;100.00
22938;BME280;11634;42.734;23.298;2023-02-14T14:22:22;96459.56;;;4.81;100.00
22938;BME280;11634;42.734;23.298;2023-02-14T14:25:00;96439.84;;;4.80;100.00
22938;BME280;11634;42.734;23.298;2023-02-14T14:27:39;96454.47;;;4.98;100.00
22938;BME280;11634;42.734;23.298;2023-02-14T14:32:36;96449.97;;;4.85;100.00
22938;BME280;11634;42.734;23.298;2023-02-14T14:37:48;96423.41;;;4.83;100.00
22938;BME280;11634;42.734;23.298;2023-02-14T14:40:29;96418.59;;;4.75;100.00
22938;BME280;11634;42.734;23.298;2023-02-14T14:43:04;96432.03;;;4.82;100.00
22938;BME280;11634;42.734;23.298;2023-02-14T14:45:30;96431.84;;;4.86;100.00
22938;BME280;11634;42.734;23.298;2023-02-14T14:48:06;96427.22;;;4.92;100.00
22938;BME280;11634;42.734;23.298;2023-02-14T14:50:34;96426.94;;;4.80;100.00
22938;BME280;11634;42.734;23.298;2023-02-14T14:53:20;96438.72;;;4.86;100.00
22938;BME280;11634;42.734;23.298;2023-02-14T14:55:46;96423.69;;;4.77;100.00
22938;BME280;11634;42.734;23.298;2023-02-14T14:58:38;96424.75;;;4.73;100.00
22938;BME280;11634;42.734;23.298;2023-02-14T15:01:06;96426.69;;;4.86;100.00
22938;BME280;11634;42.734;23.298;2023-02-14T15:03:32;96433.72;;;4.83;100.00
22938;BME280;11634;42.734;23.298;2023-02-14T15:06:17;96426.94;;;4.80;100.00
22938;BME280;11634;42.734;23.298;2023-02-14T15:08:44;96437.97;;;4.84;100.00
22938;BME280;11634;42.734;23.298;2023-02-14T15:11:23;96441.59;;;4.80;100.00
22938;BME280;11634;42.734;23.298;2023-02-14T15:14:15;96426.47;;;4.72;100.00
22938;BME280;11634;42.734;23.298;2023-02-14T15:16:54;96446.81;;;4.78;100.00
22938;BME280;11634;42.734;23.298;2023-02-14T15:19:35;96429.56;;;4.62;100.00
22938;BME280;11634;42.734;23.298;2023-02-14T15:22:17;96453.09;;;4.73;100.00
22938;BME280;11634;42.734;23.298;2023-02-14T15:24:44;96456.22;;;4.61;100.00
22938;BME280;11634;42.734;23.298;2023-02-14T15:27:15;96440.28;;;4.53;100.00
22938;BME280;11634;42.734;23.298;2023-02-14T15:29:52;96457.63;;;4.68;100.00
22938;BME280;11634;42.734;23.298;2023-02-14T15:32:19;96443.25;;;4.62;100.00
22938;BME280;11634;42.734;23.298;2023-02-14T15:34:45;96448.78;;;4.55;100.00
22938;BME280;11634;42.734;23.298;2023-02-14T15:37:13;96449.81;;;4.51;100.00
22938;BME280;11634;42.734;23.298;2023-02-14T15:39:45;96420.19;;;4.41;100.00